createdAt,value
2019-01-23T00:00:45.290Z,92.40
2019-01-23T00:03:18.338Z,92.80
2019-01-23T00:05:58.441Z,93.30
2019-01-23T00:08:31.110Z,93.80
2019-01-23T00:11:05.272Z,94.30
2019-01-23T00:13:38.092Z,94.90
2019-01-23T00:16:17.479Z,95.30
2019-01-23T00:18:50.147Z,95.60
2019-01-23T00:21:22.888Z,95.90
2019-01-23T00:23:55.575Z,96.10
2019-01-23T00:26:28.482Z,96.30
2019-01-23T00:29:01.215Z,96.40
2019-01-23T00:31:41.103Z,96.60
2019-01-23T00:34:13.766Z,96.70
2019-01-23T00:36:46.565Z,97.20
2019-01-23T00:39:19.233Z,97.40
2019-01-23T00:41:51.986Z,97.60
2019-01-23T00:44:24.736Z,97.70
2019-01-23T00:46:57.663Z,98.10
2019-01-23T00:49:30.579Z,98.30
2019-01-23T00:52:03.526Z,98.50
2019-01-23T00:54:36.330Z,98.70
2019-01-23T00:57:15.808Z,98.90
2019-01-23T00:59:49.448Z,99.00
2019-01-23T01:02:25.026Z,99.10
2019-01-23T01:04:57.677Z,99.30
2019-01-23T01:07:30.412Z,99.30
2019-01-23T01:10:03.070Z,99.40
2019-01-23T01:12:35.768Z,99.70
2019-01-23T01:15:14.982Z,99.90
2019-01-23T01:17:53.858Z,99.90
2019-01-23T01:20:26.618Z,99.90
2019-01-23T01:23:01.777Z,99.90
2019-01-23T01:25:34.995Z,99.90
2019-01-23T01:28:15.583Z,99.90
2019-01-23T01:30:48.297Z,99.90
2019-01-23T01:33:21.197Z,99.90
2019-01-23T01:35:54.413Z,99.90
2019-01-23T01:38:27.580Z,99.90
2019-01-23T01:41:00.307Z,99.90
2019-01-23T01:43:39.853Z,99.90
2019-01-23T01:46:12.478Z,99.90
2019-01-23T01:48:45.231Z,99.90
2019-01-23T01:51:17.993Z,99.90
2019-01-23T01:53:57.303Z,99.90
2019-01-23T01:56:29.898Z,99.90
2019-01-23T01:59:02.923Z,99.90
2019-01-23T02:01:35.742Z,99.90
2019-01-23T02:04:08.478Z,99.90
2019-01-23T02:06:41.164Z,99.90
2019-01-23T02:09:14.391Z,99.90
2019-01-23T02:11:47.068Z,99.90
2019-01-23T02:14:25.986Z,99.90
2019-01-23T02:17:05.732Z,99.90
2019-01-23T02:19:45.420Z,99.90
2019-01-23T02:22:18.099Z,99.90
2019-01-23T02:24:57.411Z,99.90
2019-01-23T02:27:30.177Z,99.90
2019-01-23T02:30:02.847Z,99.90
2019-01-23T02:32:35.546Z,99.90
2019-01-23T02:35:10.804Z,99.90
2019-01-23T02:37:43.471Z,99.90
2019-01-23T02:40:25.185Z,99.90
2019-01-23T02:42:57.767Z,99.90
2019-01-23T02:45:30.527Z,99.90
2019-01-23T02:48:03.270Z,99.90
2019-01-23T02:50:37.109Z,99.90
2019-01-23T02:53:09.848Z,99.90
2019-01-23T02:55:48.723Z,99.90
2019-01-23T02:58:21.305Z,99.90
2019-01-23T03:00:54.119Z,99.90
2019-01-23T03:03:26.770Z,99.90
2019-01-23T03:05:59.495Z,99.90
2019-01-23T03:08:32.179Z,99.90
2019-01-23T03:11:11.553Z,99.90
2019-01-23T03:13:44.265Z,99.90
2019-01-23T03:16:17.019Z,99.90
2019-01-23T03:18:49.869Z,99.90
2019-01-23T03:21:29.703Z,99.90
2019-01-23T03:24:02.441Z,99.90
2019-01-23T03:26:35.187Z,99.90
2019-01-23T03:29:07.951Z,99.90
2019-01-23T03:31:40.705Z,99.90
2019-01-23T03:34:13.417Z,99.90
2019-01-23T03:36:46.100Z,99.90
2019-01-23T03:39:18.802Z,99.90
2019-01-23T03:41:51.552Z,99.90
2019-01-23T03:44:24.166Z,99.90
2019-01-23T03:46:56.961Z,99.90
2019-01-23T03:49:29.662Z,99.90
2019-01-23T03:52:02.387Z,99.90
2019-01-23T03:54:35.187Z,99.90
2019-01-23T03:57:14.086Z,99.90
2019-01-23T03:59:46.724Z,99.90
2019-01-23T04:02:19.410Z,99.90
2019-01-23T04:04:52.274Z,99.90
2019-01-23T04:07:26.465Z,99.90
2019-01-23T04:09:59.222Z,99.90
2019-01-23T04:12:31.902Z,99.90
2019-01-23T04:15:04.657Z,99.90
2019-01-23T04:17:43.510Z,99.90
2019-01-23T04:20:19.152Z,99.90
2019-01-23T04:22:58.352Z,99.90
2019-01-23T04:25:31.237Z,99.90
2019-01-23T04:28:03.979Z,99.90
2019-01-23T04:30:36.604Z,99.90
2019-01-23T04:33:15.972Z,99.90
2019-01-23T04:35:48.623Z,99.90
2019-01-23T04:38:27.734Z,99.90
2019-01-23T04:41:00.401Z,99.90
2019-01-23T04:43:39.334Z,99.90
2019-01-23T04:46:11.986Z,99.90
2019-01-23T04:48:44.724Z,99.90
2019-01-23T04:51:35.535Z,99.90
2019-01-23T04:54:08.870Z,99.90
2019-01-23T04:56:41.578Z,99.90
2019-01-23T04:59:21.309Z,99.90
2019-01-23T05:01:54.119Z,99.90
2019-01-23T05:04:26.861Z,99.90
2019-01-23T05:06:59.661Z,99.90
2019-01-23T05:09:40.356Z,99.90
2019-01-23T05:12:13.031Z,99.90
2019-01-23T05:14:51.932Z,99.90
2019-01-23T05:17:24.674Z,99.90
2019-01-23T05:19:57.728Z,99.90
2019-01-23T05:22:36.879Z,99.90
2019-01-23T05:25:09.790Z,99.90
2019-01-23T05:27:42.759Z,99.90
2019-01-23T05:30:24.446Z,99.90
2019-01-23T05:32:57.135Z,99.90
2019-01-23T05:35:29.899Z,99.90
2019-01-23T05:38:02.590Z,99.90
2019-01-23T05:40:35.380Z,99.90
2019-01-23T05:43:08.037Z,99.90
2019-01-23T05:45:40.781Z,99.90
2019-01-23T05:48:13.411Z,99.90
2019-01-23T05:50:46.225Z,99.90
2019-01-23T05:53:18.856Z,99.90
2019-01-23T05:55:51.628Z,99.90
2019-01-23T05:58:24.264Z,99.90
2019-01-23T06:00:57.063Z,99.90
2019-01-23T06:03:29.642Z,99.90
2019-01-23T06:06:09.435Z,99.90
2019-01-23T06:08:42.088Z,99.90
2019-01-23T06:11:14.807Z,99.90
2019-01-23T06:13:47.403Z,99.90
2019-01-23T06:16:20.281Z,99.90
2019-01-23T06:18:53.038Z,99.90
2019-01-23T06:21:31.888Z,99.90
2019-01-23T06:24:04.789Z,99.90
2019-01-23T06:26:37.484Z,99.90
2019-01-23T06:29:10.167Z,99.90
2019-01-23T06:31:42.883Z,99.90
2019-01-23T06:34:15.476Z,99.90
2019-01-23T06:36:54.814Z,99.90
2019-01-23T06:39:27.512Z,99.90
2019-01-23T06:42:00.271Z,99.90
2019-01-23T06:44:32.950Z,99.90
2019-01-23T06:47:05.696Z,99.90
2019-01-23T06:49:38.446Z,99.90
2019-01-23T06:52:11.204Z,99.90
2019-01-23T06:54:43.894Z,99.90
2019-01-23T06:57:23.509Z,99.90
2019-01-23T06:59:56.634Z,99.90
2019-01-23T07:02:35.887Z,99.90
2019-01-23T07:05:09.271Z,99.90
2019-01-23T07:07:41.925Z,99.90
2019-01-23T07:10:17.840Z,99.90
2019-01-23T07:12:52.730Z,99.90
2019-01-23T07:15:25.369Z,99.90
2019-01-23T07:17:58.102Z,99.90
2019-01-23T07:20:31.437Z,99.90
2019-01-23T07:23:10.480Z,99.90
2019-01-23T07:25:49.959Z,99.90
2019-01-23T07:28:22.770Z,99.90
2019-01-23T07:30:55.431Z,99.90
2019-01-23T07:33:28.262Z,99.90
2019-01-23T07:36:00.986Z,99.90
2019-01-23T07:38:33.674Z,99.90
2019-01-23T07:41:06.379Z,99.90
2019-01-23T07:43:39.060Z,99.90
2019-01-23T07:46:11.714Z,99.90
2019-01-23T07:48:44.591Z,99.90
2019-01-23T07:51:17.262Z,99.90
2019-01-23T07:53:56.971Z,99.90
2019-01-23T07:56:29.665Z,99.90
2019-01-23T07:59:02.411Z,99.90
2019-01-23T08:01:35.104Z,99.90
2019-01-23T08:04:07.964Z,99.90
2019-01-23T08:06:40.683Z,99.90
2019-01-23T08:09:20.233Z,99.90
2019-01-23T08:11:52.826Z,99.90
2019-01-23T08:14:31.748Z,99.90
2019-01-23T08:17:04.483Z,99.90
2019-01-23T08:19:37.220Z,99.90
2019-01-23T08:22:09.926Z,99.90
2019-01-23T08:24:44.621Z,99.90
2019-01-23T08:27:17.508Z,99.90
2019-01-23T08:29:50.239Z,99.90
2019-01-23T08:32:22.908Z,99.90
2019-01-23T08:35:02.467Z,99.90
2019-01-23T08:37:35.144Z,99.90
2019-01-23T08:40:08.476Z,99.90
2019-01-23T08:42:41.138Z,99.90
2019-01-23T08:45:21.179Z,99.90
2019-01-23T08:47:53.879Z,99.90
2019-01-23T08:50:35.122Z,99.90
2019-01-23T08:53:07.785Z,99.90
2019-01-23T08:55:40.473Z,99.90
2019-01-23T08:58:13.203Z,99.90
2019-01-23T09:00:46.249Z,99.90
2019-01-23T09:03:19.028Z,99.90
2019-01-23T09:05:52.080Z,99.90
2019-01-23T09:08:25.279Z,99.90
2019-01-23T09:10:57.999Z,99.90
2019-01-23T09:13:30.736Z,99.90
2019-01-23T09:16:03.412Z,99.90
2019-01-23T09:18:36.135Z,99.90
2019-01-23T09:21:15.851Z,99.90
2019-01-23T09:23:48.526Z,99.90
2019-01-23T09:26:27.606Z,99.90
2019-01-23T09:29:00.369Z,99.90
2019-01-23T09:32:15.204Z,99.90
2019-01-23T09:35:11.968Z,99.90
2019-01-23T09:38:02.114Z,99.90
2019-01-23T09:40:53.920Z,99.90
2019-01-23T09:44:00.729Z,99.90
2019-01-23T09:47:02.130Z,99.90
2019-01-23T09:50:13.606Z,99.90
2019-01-23T09:52:58.239Z,99.90
2019-01-23T09:55:31.201Z,99.90
2019-01-23T09:58:07.233Z,99.90
2019-01-23T10:00:39.941Z,99.90
2019-01-23T10:03:12.625Z,99.90
2019-01-23T10:05:45.275Z,99.90
2019-01-23T10:08:17.953Z,99.90
2019-01-23T10:10:50.703Z,99.90
2019-01-23T10:13:23.406Z,99.90
2019-01-23T10:16:09.684Z,99.90
2019-01-23T10:18:42.334Z,99.90
2019-01-23T10:21:15.156Z,99.90
2019-01-23T10:23:47.811Z,99.90
2019-01-23T10:26:20.502Z,99.90
2019-01-23T10:28:53.136Z,99.90
2019-01-23T10:31:25.908Z,99.90
2019-01-23T10:33:58.630Z,99.90
2019-01-23T10:36:31.453Z,99.90
2019-01-23T10:39:05.488Z,99.90
2019-01-23T10:41:38.261Z,99.90
2019-01-23T10:44:10.849Z,99.90
2019-01-23T10:46:43.736Z,99.90
2019-01-23T10:49:16.462Z,99.90
2019-01-23T10:51:49.181Z,99.90
2019-01-23T10:54:21.855Z,99.90
2019-01-23T10:57:08.126Z,99.90
2019-01-23T10:59:40.820Z,99.90
2019-01-23T11:02:13.618Z,99.90
2019-01-23T11:04:46.380Z,99.90
2019-01-23T11:07:19.149Z,99.90
2019-01-23T11:09:51.794Z,99.90
2019-01-23T11:12:24.572Z,99.90
2019-01-23T11:14:57.268Z,99.90
2019-01-23T11:17:30.137Z,99.90
2019-01-23T11:20:02.864Z,99.90
2019-01-23T11:22:35.534Z,99.90
2019-01-23T11:25:08.599Z,99.90
2019-01-23T11:27:48.151Z,99.90
2019-01-23T11:30:23.246Z,99.90
2019-01-23T11:33:02.593Z,99.90
2019-01-23T11:35:35.201Z,99.90
2019-01-23T11:38:07.980Z,99.90
2019-01-23T11:40:40.631Z,99.90
2019-01-23T11:43:13.403Z,99.90
2019-01-23T11:45:46.132Z,99.90
2019-01-23T11:48:25.443Z,99.90
2019-01-23T11:50:58.109Z,99.90
2019-01-23T11:53:30.906Z,99.90
2019-01-23T11:56:03.577Z,99.90
2019-01-23T11:58:36.411Z,99.90
2019-01-23T12:01:08.987Z,99.90
2019-01-23T12:03:41.743Z,99.90
2019-01-23T12:06:14.412Z,99.90
2019-01-23T12:08:47.244Z,99.90
2019-01-23T12:11:19.954Z,99.90
2019-01-23T12:13:52.664Z,99.90
2019-01-23T12:16:25.385Z,99.90
2019-01-23T12:18:58.145Z,99.90
2019-01-23T12:21:31.133Z,99.90
2019-01-23T12:24:03.839Z,99.90
2019-01-23T12:26:36.495Z,99.90
2019-01-23T12:29:15.957Z,99.90
2019-01-23T12:31:48.708Z,99.90
2019-01-23T12:34:28.663Z,99.90
2019-01-23T12:37:01.572Z,99.90
2019-01-23T12:39:34.670Z,99.90
2019-01-23T12:42:10.967Z,99.90
2019-01-23T12:44:43.710Z,99.90
2019-01-23T12:47:16.522Z,99.90
2019-01-23T12:49:55.431Z,99.90
2019-01-23T12:52:28.124Z,99.90
2019-01-23T12:55:00.977Z,99.90
2019-01-23T12:57:33.652Z,99.90
2019-01-23T13:00:13.065Z,99.90
2019-01-23T13:02:45.783Z,99.90
2019-01-23T13:05:20.049Z,99.90
2019-01-23T13:07:52.823Z,99.90
2019-01-23T13:10:25.757Z,99.90
2019-01-23T13:12:59.570Z,99.90
2019-01-23T13:15:32.581Z,99.90
2019-01-23T13:18:05.313Z,99.90
2019-01-23T13:20:44.198Z,99.90
2019-01-23T13:23:20.369Z,99.90
2019-01-23T13:25:54.030Z,99.90
2019-01-23T13:28:26.772Z,99.90
2019-01-23T13:31:06.091Z,99.90
2019-01-23T13:33:38.792Z,99.90
2019-01-23T13:36:18.867Z,99.90
2019-01-23T13:38:51.587Z,99.90
2019-01-23T13:41:30.755Z,99.90
2019-01-23T13:44:03.387Z,99.90
2019-01-23T13:46:43.859Z,99.90
2019-01-23T13:49:16.546Z,99.90
2019-01-23T13:51:49.317Z,99.90
2019-01-23T13:54:22.094Z,99.90
2019-01-23T13:56:54.822Z,99.90
2019-01-23T13:59:27.653Z,99.90
2019-01-23T14:02:00.417Z,99.90
2019-01-23T14:04:33.292Z,99.90
2019-01-23T14:07:08.229Z,99.90
2019-01-23T14:09:40.949Z,99.90
2019-01-23T14:12:13.688Z,99.90
2019-01-23T14:14:46.355Z,99.90
2019-01-23T14:17:20.327Z,99.90
2019-01-23T14:19:53.153Z,99.90
2019-01-23T14:22:26.043Z,99.90
2019-01-23T14:24:58.719Z,99.90
2019-01-23T14:27:38.060Z,99.90
2019-01-23T14:38:18.271Z,99.90
2019-01-23T14:40:51.006Z,99.90
2019-01-23T14:43:31.051Z,99.90
2019-01-23T14:46:03.739Z,99.90
2019-01-23T14:48:43.973Z,99.90
2019-01-23T14:51:16.638Z,99.90
2019-01-23T14:53:49.500Z,99.90
2019-01-23T14:56:22.237Z,99.90
2019-01-23T14:58:56.394Z,99.90
2019-01-23T15:01:29.536Z,99.90
2019-01-23T15:04:08.782Z,99.90
2019-01-23T15:06:41.989Z,99.80
2019-01-23T15:09:21.827Z,99.90
2019-01-23T15:11:54.463Z,99.90
2019-01-23T15:14:27.256Z,99.70
2019-01-23T15:16:59.862Z,99.00
2019-01-23T15:19:33.967Z,98.90
2019-01-23T15:22:06.897Z,99.20
2019-01-23T15:24:39.769Z,98.50
2019-01-23T15:27:12.390Z,98.10
2019-01-23T15:29:51.238Z,98.30
2019-01-23T15:32:23.919Z,97.10
2019-01-23T15:35:03.577Z,97.40
2019-01-23T15:37:36.338Z,96.30
2019-01-23T15:40:11.062Z,96.50
2019-01-23T15:42:44.467Z,96.50
2019-01-23T15:45:20.895Z,95.80
2019-01-23T15:47:53.542Z,95.20
2019-01-23T15:50:27.348Z,94.90
2019-01-23T15:53:00.123Z,94.80
2019-01-23T15:55:32.878Z,94.80
2019-01-23T15:58:05.980Z,94.40
2019-01-23T16:00:46.017Z,94.30
2019-01-23T16:03:19.376Z,94.30
2019-01-23T16:05:59.400Z,94.20
2019-01-23T16:08:32.195Z,95.00
2019-01-23T16:11:05.084Z,95.70
2019-01-23T16:13:47.415Z,95.70
2019-01-23T16:16:39.094Z,95.10
2019-01-23T16:19:12.021Z,94.70
2019-01-23T16:21:45.678Z,94.50
2019-01-23T16:24:18.797Z,94.10
2019-01-23T16:27:00.493Z,94.00
2019-01-23T16:29:35.328Z,93.30
2019-01-23T16:32:22.236Z,93.50
2019-01-23T16:34:59.698Z,93.00
2019-01-23T16:37:42.683Z,93.00
2019-01-23T16:40:15.795Z,91.50
2019-01-23T16:42:48.537Z,92.20
2019-01-23T16:45:21.579Z,91.00
2019-01-23T16:48:08.433Z,89.90
2019-01-23T16:50:41.228Z,85.50
2019-01-23T16:53:21.262Z,84.90
2019-01-23T16:55:53.907Z,85.20
2019-01-23T16:58:26.618Z,86.90
2019-01-23T17:01:04.225Z,86.50
2019-01-23T17:03:43.910Z,87.30
2019-01-23T17:06:16.938Z,87.10
2019-01-23T17:08:56.889Z,83.90
2019-01-23T17:11:29.565Z,83.90
2019-01-23T17:14:03.307Z,86.60
2019-01-23T17:16:36.306Z,88.10
2019-01-23T17:19:09.156Z,87.70
2019-01-23T17:21:42.224Z,86.50
2019-01-23T17:24:14.947Z,84.80
2019-01-23T17:26:47.991Z,83.60
2019-01-23T17:29:21.077Z,74.10
2019-01-23T17:31:53.962Z,78.30
2019-01-23T17:34:34.144Z,76.80
2019-01-23T17:37:08.004Z,77.50
2019-01-23T17:39:49.615Z,77.60
2019-01-23T17:42:22.414Z,75.70
2019-01-23T17:44:55.121Z,74.20
2019-01-23T17:47:34.448Z,73.40
2019-01-23T17:50:07.901Z,72.90
2019-01-23T17:52:40.642Z,72.80
2019-01-23T17:55:19.656Z,68.80
2019-01-23T17:57:52.448Z,68.40
2019-01-23T18:00:29.572Z,67.80
2019-01-23T18:03:02.211Z,67.10
2019-01-23T18:05:43.647Z,63.50
2019-01-23T18:08:16.338Z,62.20
2019-01-23T18:10:49.057Z,63.00
2019-01-23T18:13:21.743Z,65.00
2019-01-23T18:15:54.544Z,67.30
2019-01-23T18:18:27.240Z,65.80
2019-01-23T18:21:00.056Z,65.50
2019-01-23T18:23:32.902Z,66.10
2019-01-23T18:26:05.712Z,65.60
2019-01-23T18:28:57.568Z,66.20
2019-01-23T18:31:47.543Z,66.10
2019-01-23T18:34:59.922Z,66.80
2019-01-23T18:38:22.150Z,68.70
2019-01-23T18:41:29.867Z,70.90
2019-01-23T18:44:38.845Z,69.70
2019-01-23T18:47:43.470Z,68.80
2019-01-23T18:51:28.689Z,69.90
2019-01-23T18:54:02.696Z,70.30
2019-01-23T18:56:41.549Z,73.20
2019-01-23T18:59:14.296Z,73.50
2019-01-23T19:01:47.024Z,73.50
2019-01-23T19:04:20.169Z,74.10
2019-01-23T19:06:53.291Z,74.60
2019-01-23T19:09:26.057Z,76.30
2019-01-23T19:11:59.947Z,76.90
2019-01-23T19:14:32.651Z,75.80
2019-01-23T19:17:07.745Z,75.30
2019-01-23T19:19:42.080Z,74.40
2019-01-23T19:22:21.719Z,74.30
2019-01-23T19:24:54.399Z,72.90
2019-01-23T19:27:27.116Z,72.60
2019-01-23T19:29:59.882Z,73.80
2019-01-23T19:32:39.127Z,74.20
2019-01-23T19:35:12.265Z,72.80
2019-01-23T19:37:51.883Z,74.60
2019-01-23T19:40:25.069Z,75.30
2019-01-23T19:42:58.236Z,75.50
2019-01-23T19:45:31.468Z,76.80
2019-01-23T19:48:11.351Z,76.30
2019-01-23T19:50:51.177Z,74.90
2019-01-23T19:53:24.947Z,75.40
2019-01-23T19:55:57.677Z,75.30
2019-01-23T19:58:31.311Z,76.20
2019-01-23T20:01:04.365Z,75.80
2019-01-23T20:03:44.353Z,74.60
2019-01-23T20:06:17.041Z,75.20
2019-01-23T20:08:50.102Z,78.00
2019-01-23T20:11:23.345Z,77.90
2019-01-23T20:13:56.501Z,76.30
2019-01-23T20:16:30.206Z,77.10
2019-01-23T20:19:04.322Z,77.90
2019-01-23T20:21:37.088Z,77.50
2019-01-23T20:24:09.902Z,76.00
2019-01-23T20:26:42.580Z,77.40
2019-01-23T20:29:15.449Z,79.30
2019-01-23T20:31:48.094Z,76.20
2019-01-23T20:34:20.923Z,75.80
2019-01-23T20:36:53.780Z,74.10
2019-01-23T20:39:33.312Z,73.80
2019-01-23T20:42:05.944Z,76.10
2019-01-23T20:44:38.746Z,77.40
2019-01-23T20:47:11.543Z,78.00
2019-01-23T20:49:50.963Z,76.80
2019-01-23T20:52:23.884Z,81.20
2019-01-23T20:54:56.605Z,80.90
2019-01-23T20:57:29.370Z,82.70
2019-01-23T21:00:09.265Z,81.80
2019-01-23T21:02:42.045Z,81.60
2019-01-23T21:05:22.328Z,84.10
2019-01-23T21:07:55.074Z,82.10
2019-01-23T21:10:34.444Z,82.30
2019-01-23T21:13:07.197Z,82.80
2019-01-23T21:15:46.894Z,83.50
2019-01-23T21:18:19.692Z,85.80
2019-01-23T21:20:52.403Z,84.90
2019-01-23T21:23:25.453Z,88.50
2019-01-23T21:25:58.192Z,89.80
2019-01-23T21:28:30.978Z,89.90
2019-01-23T21:31:03.872Z,90.90
2019-01-23T21:33:42.067Z,92.70
2019-01-23T21:36:10.823Z,92.80
2019-01-23T21:38:43.549Z,92.90
2019-01-23T21:41:24.967Z,93.80
2019-01-23T21:43:57.718Z,93.70
2019-01-23T21:46:31.738Z,93.60
2019-01-23T21:49:04.896Z,93.50
2019-01-23T21:51:38.606Z,94.10
2019-01-23T21:54:18.187Z,94.20
2019-01-23T21:56:51.069Z,94.00
2019-01-23T21:59:23.738Z,94.00
2019-01-23T22:02:04.585Z,94.80
2019-01-23T22:04:39.451Z,95.00
2019-01-23T22:07:19.965Z,95.10
2019-01-23T22:10:05.074Z,95.00
2019-01-23T22:12:39.396Z,95.30
2019-01-23T22:15:14.282Z,95.30
2019-01-23T22:17:54.551Z,95.00
2019-01-23T22:20:27.345Z,94.90
2019-01-23T22:23:00.201Z,95.70
2019-01-23T22:25:32.958Z,95.60
2019-01-23T22:28:05.823Z,95.50
2019-01-23T22:30:38.546Z,95.60
2019-01-23T22:33:11.391Z,95.90
2019-01-23T22:35:44.047Z,95.70
2019-01-23T22:38:23.226Z,95.40
2019-01-23T22:40:55.885Z,95.40
2019-01-23T22:43:28.618Z,95.30
2019-01-23T22:46:01.342Z,95.30
2019-01-23T22:48:40.832Z,95.50
2019-01-23T22:51:15.364Z,95.70
2019-01-23T22:53:47.848Z,95.90
2019-01-23T22:56:20.709Z,95.60
2019-01-23T22:58:53.576Z,95.80
2019-01-23T23:01:29.086Z,95.90
2019-01-23T23:04:03.552Z,96.30
2019-01-23T23:06:36.463Z,96.80
2019-01-23T23:09:12.248Z,96.40
2019-01-23T23:11:44.852Z,96.90
2019-01-23T23:14:17.590Z,96.70
2019-01-23T23:16:50.272Z,96.30
2019-01-23T23:19:23.157Z,96.10
2019-01-23T23:21:55.917Z,96.90
2019-01-23T23:24:28.920Z,97.10
2019-01-23T23:27:01.567Z,97.40
2019-01-23T23:29:34.327Z,97.90
2019-01-23T23:32:07.019Z,98.70
2019-01-23T23:34:46.690Z,99.60
2019-01-23T23:37:19.432Z,99.90
2019-01-23T23:39:52.674Z,99.90
2019-01-23T23:42:25.343Z,99.90
2019-01-23T23:44:58.134Z,99.90
2019-01-23T23:47:30.937Z,99.90
2019-01-23T23:50:03.635Z,99.90
2019-01-23T23:52:36.380Z,99.90
2019-01-23T23:55:09.965Z,99.90
2019-01-23T23:57:42.897Z,99.90
